Agency, Missouri
Current Conditions -  °F | °C
As of 11:53 AM on Thursday 27 Nov 2014 (Local Time) from KSTJ Reporting Station
Broken Clouds Broken Clouds  
Wind Chill: 21°   Ceiling: 7000
Heat Index: 26°   Visibility: 10mi
Dew Point: 16°   Wind: 5mph
Humidity: 66%   Direction: 10°N
Pressure: 30.53"   Gusts: NA
Location:  39.64°N, 94.74°W
Report Text: KSTJ 271753Z 01004KT 10SM BKN070 M03/M09 A3053 RMK AO2 SLP350 T10331089 11033 21056 58003
Loading
Personal Weather Stations






























Interactive Weather Map New forecast layout! Learn more

10-Day Weather Forecast

Advertisements
Track Severe Weather on mobile